Pagrindinis puslapis
METAR-TAF:

METAR-TAF

Oro uostai :

Eskišechiras, Turkija

platuma: 39-48-36N, ilguma: 30-31-10E, Aukštis: 789 m

Dabartinis oras

Ataskaita buvo paskelbta 32 minutes, ne 21:50 UTC
Vėjas 13 kt iš Vakarų/Šiaurės Vakarų
Temperatūra 12°C
Drėgmė 88%
Slėgis 1017 hPa
Matomumas 10 km arba daugiau
Išsisklaidę debesys ne aukštis 4000 ft

METAR: LTBY 082150Z 29013KT 9999 SCT040 12/10 Q1017

Laikas: 01:22 (22:22 UTC)

Prognozė

Ataskaita buvo paskelbta 2 valandos ir 42 minutes, ne 19:40 UTC
Prognozė galioja nuo 08 metu 21 UTC su 09 metu 06 UTC
Vėjas 9 kt iš Vakarų/Šiaurės Vakarų
Matomumas 10 km arba daugiau
Išsisklaidę debesys ne aukštis 3500 ft

TAF: LTBY 081940Z 0821/0906 29009KT 9999 SCT035

Orai ataskaitas ir orų prognozės (METAR, TAF).

turimą stotys yra geltonos ir raudonos taškus žemėlapyje.

Perkelti pele per norėdami pamatyti stoties vardą.

Tada spustelėkite, norėdami matyti oro stebėjimo ir prognozės.

Norėdami pakeisti žemėlapį: spustelėkite ant žalios mygtukų su juodo kryžiaus žemyn,; žalią mygtuką su brūkšneliu, jei norite nutolinti; arba žalių rodyklių gretimoms žemėlapius.


METAR-TAF: